QTR1182 OTHH-OEJN
Flight info
| Callsign | QTR1182 |
|---|---|
| Flight time | 2h 8m |
| Altitude | 40000 |
| Route | TULUB B457 NARMI N112 GETOT DCT UMASU M309 VEMEM |
| Aircraft | B77W/H-SDE1E2E3FGHIJ2J3J4J5M1RWXY/LB1D1 |
Departure
| Time | 2026-05-07 15:33 |
|---|---|
| Airport | Hamad International Airport (OTHH) |
Arrival
| Time | 2026-05-07 17:41 |
|---|---|
| Airport | King Abdulaziz International Airport (OEJN) |
| Time | Latitude | Longitude | Altitude | Speed | Heading |
|---|---|---|---|---|---|
| 2026-05-07 14:41 | 25.25907 | 51.60908 | 16 ft | 0 kts | 33° |
| 2026-05-07 15:24 | 25.25896 | 51.60901 | 16 ft | 2 kts | 33° |
| 2026-05-07 15:24 | 25.25884 | 51.60892 | 17 ft | 2 kts | 41° |
| 2026-05-07 15:24 | 25.25875 | 51.60880 | 17 ft | 2 kts | 61° |
| 2026-05-07 15:24 | 25.25869 | 51.60864 | 17 ft | 2 kts | 77° |
| 2026-05-07 15:25 | 25.25867 | 51.60848 | 18 ft | 2 kts | 94° |
| 2026-05-07 15:25 | 25.25870 | 51.60832 | 18 ft | 2 kts | 110° |
| 2026-05-07 15:25 | 25.25876 | 51.60817 | 18 ft | 2 kts | 126° |
| 2026-05-07 15:25 | 25.25886 | 51.60805 | 19 ft | 2 kts | 143° |
| 2026-05-07 15:26 | 25.25897 | 51.60798 | 18 ft | 0 kts | 156° |
| 2026-05-07 15:26 | 25.25899 | 51.60797 | 18 ft | 0 kts | 158° |
| 2026-05-07 15:29 | 25.25891 | 51.60801 | 18 ft | 3 kts | 158° |
| 2026-05-07 15:30 | 25.25858 | 51.60815 | 18 ft | 6 kts | 158° |
| 2026-05-07 15:30 | 25.25811 | 51.60838 | 18 ft | 8 kts | 157° |
| 2026-05-07 15:30 | 25.25743 | 51.60869 | 16 ft | 12 kts | 161° |
| 2026-05-07 15:30 | 25.25666 | 51.60846 | 15 ft | 12 kts | 234° |
| 2026-05-07 15:31 | 25.25633 | 51.60767 | 16 ft | 10 kts | 248° |
| 2026-05-07 15:31 | 25.25608 | 51.60699 | 17 ft | 8 kts | 248° |
| 2026-05-07 15:31 | 25.25588 | 51.60645 | 18 ft | 6 kts | 248° |
| 2026-05-07 15:31 | 25.25572 | 51.60600 | 19 ft | 6 kts | 248° |
| 2026-05-07 15:32 | 25.25562 | 51.60554 | 20 ft | 5 kts | 283° |
| 2026-05-07 15:32 | 25.25585 | 51.60525 | 21 ft | 5 kts | 327° |
| 2026-05-07 15:32 | 25.25642 | 51.60495 | 22 ft | 15 kts | 336° |
| 2026-05-07 15:32 | 25.25894 | 51.60384 | 23 ft | 73 kts | 339° |
| 2026-05-07 15:33 | 25.26605 | 51.60075 | 25 ft | 143 kts | 339° |
| 2026-05-07 15:33 | 25.27703 | 51.59583 | 193 ft | 187 kts | 339° |
| 2026-05-07 15:33 | 25.28979 | 51.59009 | 818 ft | 203 kts | 339° |
| 2026-05-07 15:33 | 25.30174 | 51.58482 | 1983 ft | 184 kts | 339° |
| 2026-05-07 15:34 | 25.31416 | 51.57944 | 2347 ft | 200 kts | 339° |
| 2026-05-07 15:34 | 25.32764 | 51.57349 | 2714 ft | 217 kts | 339° |
| 2026-05-07 15:34 | 25.34231 | 51.56699 | 3112 ft | 235 kts | 339° |
| 2026-05-07 15:34 | 25.35808 | 51.56001 | 3557 ft | 251 kts | 339° |
| 2026-05-07 15:35 | 25.37474 | 51.55263 | 3964 ft | 265 kts | 339° |
| 2026-05-07 15:35 | 25.39182 | 51.54506 | 4698 ft | 268 kts | 339° |
| 2026-05-07 15:35 | 25.40924 | 51.53734 | 5399 ft | 273 kts | 340° |
| 2026-05-07 15:35 | 25.42716 | 51.52940 | 6104 ft | 278 kts | 340° |
| 2026-05-07 15:36 | 25.44526 | 51.52137 | 6747 ft | 282 kts | 340° |
| 2026-05-07 15:36 | 25.46308 | 51.51220 | 7343 ft | 288 kts | 327° |
| 2026-05-07 15:36 | 25.47679 | 51.49612 | 8122 ft | 290 kts | 301° |
| 2026-05-07 15:36 | 25.48326 | 51.47475 | 8644 ft | 300 kts | 276° |
| 2026-05-07 15:37 | 25.48336 | 51.45176 | 9309 ft | 303 kts | 268° |
| 2026-05-07 15:37 | 25.48215 | 51.42823 | 10037 ft | 304 kts | 267° |
| 2026-05-07 15:37 | 25.48095 | 51.40448 | 10492 ft | 318 kts | 268° |
| 2026-05-07 15:37 | 25.47845 | 51.37942 | 10806 ft | 334 kts | 259° |
| 2026-05-07 15:38 | 25.47212 | 51.35416 | 11174 ft | 350 kts | 249° |
| 2026-05-07 15:38 | 25.46145 | 51.32921 | 11597 ft | 365 kts | 238° |
| 2026-05-07 15:38 | 25.44642 | 51.30603 | 12029 ft | 379 kts | 228° |
| 2026-05-07 15:38 | 25.42696 | 51.28544 | 12451 ft | 391 kts | 217° |
| 2026-05-07 15:39 | 25.40392 | 51.26913 | 12947 ft | 402 kts | 205° |
| 2026-05-07 15:39 | 25.37762 | 51.25799 | 13652 ft | 405 kts | 193° |
| 2026-05-07 15:39 | 25.34954 | 51.25292 | 14507 ft | 407 kts | 182° |
| 2026-05-07 15:39 | 25.32122 | 51.25290 | 15381 ft | 409 kts | 178° |
| 2026-05-07 15:40 | 25.29286 | 51.25389 | 16211 ft | 413 kts | 175° |
| 2026-05-07 15:40 | 25.26425 | 51.25887 | 17057 ft | 416 kts | 165° |
| 2026-05-07 15:40 | 25.23681 | 51.26872 | 17867 ft | 420 kts | 159° |
| 2026-05-07 15:40 | 25.20906 | 51.28046 | 18631 ft | 427 kts | 159° |
| 2026-05-07 15:41 | 25.18147 | 51.29220 | 19334 ft | 433 kts | 159° |
| 2026-05-07 15:41 | 25.15305 | 51.30426 | 20068 ft | 439 kts | 160° |
| 2026-05-07 15:41 | 25.12449 | 51.31635 | 20812 ft | 444 kts | 160° |
| 2026-05-07 15:41 | 25.09527 | 51.32870 | 21537 ft | 449 kts | 160° |
| 2026-05-07 15:42 | 25.06607 | 51.34101 | 22218 ft | 454 kts | 161° |
| 2026-05-07 15:42 | 25.03638 | 51.35352 | 22890 ft | 459 kts | 161° |
| 2026-05-07 15:42 | 25.00645 | 51.36612 | 23512 ft | 465 kts | 161° |
| 2026-05-07 15:42 | 24.97592 | 51.37896 | 24104 ft | 470 kts | 161° |
| 2026-05-07 15:43 | 24.94520 | 51.39213 | 24680 ft | 476 kts | 159° |
| 2026-05-07 15:43 | 24.91570 | 51.40927 | 25241 ft | 485 kts | 150° |
| 2026-05-07 15:43 | 24.88759 | 51.43044 | 25800 ft | 492 kts | 148° |
| 2026-05-07 15:43 | 24.85956 | 51.45239 | 26377 ft | 497 kts | 148° |
| 2026-05-07 15:44 | 24.83113 | 51.47467 | 26922 ft | 502 kts | 148° |
| 2026-05-07 15:44 | 24.80287 | 51.49679 | 27430 ft | 508 kts | 148° |
| 2026-05-07 15:44 | 24.77287 | 51.51801 | 27906 ft | 509 kts | 155° |
| 2026-05-07 15:44 | 24.74050 | 51.53413 | 28407 ft | 509 kts | 164° |
| 2026-05-07 15:45 | 24.70628 | 51.54479 | 28920 ft | 507 kts | 173° |
| 2026-05-07 15:45 | 24.67150 | 51.54965 | 29508 ft | 503 kts | 181° |
| 2026-05-07 15:45 | 24.63667 | 51.54912 | 29792 ft | 497 kts | 189° |
| 2026-05-07 15:45 | 24.60296 | 51.54355 | 29805 ft | 490 kts | 195° |
| 2026-05-07 15:46 | 24.50331 | 51.51989 | 29796 ft | 487 kts | 196° |
| 2026-05-07 15:47 | 24.43641 | 51.50399 | 29795 ft | 489 kts | 196° |
| 2026-05-07 15:47 | 24.37011 | 51.48832 | 29796 ft | 489 kts | 196° |
| 2026-05-07 15:48 | 24.30322 | 51.47254 | 29799 ft | 490 kts | 196° |
| 2026-05-07 15:48 | 24.23621 | 51.45684 | 29853 ft | 498 kts | 194° |
| 2026-05-07 15:48 | 24.20131 | 51.45264 | 30471 ft | 504 kts | 185° |
| 2026-05-07 15:49 | 24.16671 | 51.45227 | 31544 ft | 496 kts | 184° |
| 2026-05-07 15:49 | 24.13232 | 51.45235 | 32618 ft | 487 kts | 184° |
| 2026-05-07 15:49 | 24.09886 | 51.45245 | 33500 ft | 482 kts | 184° |
| 2026-05-07 15:49 | 24.06523 | 51.45255 | 34259 ft | 480 kts | 184° |
| 2026-05-07 15:50 | 24.03185 | 51.45264 | 34978 ft | 478 kts | 184° |
| 2026-05-07 15:50 | 23.99874 | 51.45275 | 35652 ft | 476 kts | 183° |
| 2026-05-07 15:50 | 23.96530 | 51.45284 | 35793 ft | 479 kts | 183° |
| 2026-05-07 15:51 | 23.89865 | 51.45306 | 35794 ft | 474 kts | 183° |
| 2026-05-07 15:51 | 23.83204 | 51.45327 | 35794 ft | 477 kts | 183° |
| 2026-05-07 15:52 | 23.76505 | 51.45349 | 35790 ft | 476 kts | 183° |
| 2026-05-07 15:52 | 23.69882 | 51.45371 | 35788 ft | 477 kts | 183° |
| 2026-05-07 15:53 | 23.63214 | 51.45393 | 35791 ft | 477 kts | 183° |
| 2026-05-07 15:53 | 23.56625 | 51.44695 | 35787 ft | 471 kts | 197° |
| 2026-05-07 15:54 | 23.50614 | 51.42023 | 35788 ft | 465 kts | 213° |
| 2026-05-07 15:54 | 23.45598 | 51.37615 | 35787 ft | 460 kts | 229° |
| 2026-05-07 15:55 | 23.41996 | 51.31925 | 35784 ft | 458 kts | 244° |
| 2026-05-07 15:55 | 23.40011 | 51.25341 | 35784 ft | 458 kts | 259° |
| 2026-05-07 15:56 | 23.39009 | 51.18500 | 35789 ft | 460 kts | 260° |
| 2026-05-07 15:56 | 23.38027 | 51.11655 | 35794 ft | 458 kts | 260° |
| 2026-05-07 15:57 | 23.37044 | 51.04831 | 35791 ft | 460 kts | 260° |
| 2026-05-07 15:57 | 23.36054 | 50.97976 | 35796 ft | 458 kts | 260° |
| 2026-05-07 15:58 | 23.35064 | 50.91138 | 35794 ft | 458 kts | 260° |
| 2026-05-07 15:58 | 23.34068 | 50.84290 | 35797 ft | 458 kts | 260° |
| 2026-05-07 15:59 | 23.33067 | 50.77426 | 35796 ft | 458 kts | 260° |
| 2026-05-07 15:59 | 23.32070 | 50.70604 | 35797 ft | 458 kts | 260° |
| 2026-05-07 16:00 | 23.31070 | 50.63792 | 35801 ft | 458 kts | 260° |
| 2026-05-07 16:00 | 23.30066 | 50.56967 | 35800 ft | 458 kts | 260° |
| 2026-05-07 16:01 | 23.29060 | 50.50157 | 35801 ft | 458 kts | 260° |
| 2026-05-07 16:01 | 23.28049 | 50.43329 | 35801 ft | 456 kts | 260° |
| 2026-05-07 16:02 | 23.27038 | 50.36520 | 35800 ft | 457 kts | 260° |
| 2026-05-07 16:02 | 23.26025 | 50.29721 | 35808 ft | 457 kts | 259° |
| 2026-05-07 16:03 | 23.25009 | 50.22922 | 35807 ft | 455 kts | 259° |
| 2026-05-07 16:03 | 23.23992 | 50.16142 | 35812 ft | 457 kts | 259° |
| 2026-05-07 16:04 | 23.22966 | 50.09316 | 35821 ft | 456 kts | 259° |
| 2026-05-07 16:04 | 23.21941 | 50.02515 | 35826 ft | 458 kts | 259° |
| 2026-05-07 16:05 | 23.20910 | 49.95703 | 35827 ft | 458 kts | 259° |
| 2026-05-07 16:05 | 23.19872 | 49.88857 | 35821 ft | 457 kts | 259° |
| 2026-05-07 16:06 | 23.18842 | 49.82090 | 35814 ft | 457 kts | 259° |
| 2026-05-07 16:06 | 23.17810 | 49.75324 | 35812 ft | 455 kts | 259° |
| 2026-05-07 16:07 | 23.16767 | 49.68515 | 35812 ft | 456 kts | 259° |
| 2026-05-07 16:07 | 23.15724 | 49.61720 | 35812 ft | 455 kts | 259° |
| 2026-05-07 16:08 | 23.14683 | 49.54958 | 35809 ft | 455 kts | 259° |
| 2026-05-07 16:08 | 23.13634 | 49.48164 | 35806 ft | 454 kts | 259° |
| 2026-05-07 16:09 | 23.12580 | 49.41363 | 35802 ft | 457 kts | 259° |
| 2026-05-07 16:09 | 23.11520 | 49.34536 | 35798 ft | 455 kts | 258° |
| 2026-05-07 16:10 | 23.10469 | 49.27789 | 35804 ft | 455 kts | 258° |
| 2026-05-07 16:10 | 23.09415 | 49.21043 | 35805 ft | 454 kts | 258° |
| 2026-05-07 16:11 | 23.08353 | 49.14265 | 35806 ft | 454 kts | 258° |
| 2026-05-07 16:11 | 23.07294 | 49.07519 | 35811 ft | 452 kts | 258° |
| 2026-05-07 16:12 | 23.06232 | 49.00784 | 35815 ft | 453 kts | 258° |
| 2026-05-07 16:12 | 23.05164 | 48.94022 | 35820 ft | 452 kts | 258° |
| 2026-05-07 16:13 | 23.04101 | 48.87319 | 35828 ft | 452 kts | 258° |
| 2026-05-07 16:13 | 23.03031 | 48.80582 | 35840 ft | 452 kts | 258° |
| 2026-05-07 16:14 | 23.01956 | 48.73842 | 35853 ft | 453 kts | 258° |
| 2026-05-07 16:14 | 23.00882 | 48.67122 | 35858 ft | 454 kts | 258° |
| 2026-05-07 16:15 | 22.99805 | 48.60395 | 35858 ft | 453 kts | 258° |
| 2026-05-07 16:15 | 22.98735 | 48.53740 | 35859 ft | 452 kts | 258° |
| 2026-05-07 16:16 | 22.97654 | 48.47035 | 35861 ft | 453 kts | 258° |
| 2026-05-07 16:16 | 22.96567 | 48.40309 | 35860 ft | 453 kts | 258° |
| 2026-05-07 16:17 | 22.95481 | 48.33606 | 35868 ft | 451 kts | 257° |
| 2026-05-07 16:17 | 22.94399 | 48.26946 | 35871 ft | 451 kts | 257° |
| 2026-05-07 16:18 | 22.93304 | 48.20224 | 35872 ft | 452 kts | 257° |
| 2026-05-07 16:18 | 22.92209 | 48.13522 | 35872 ft | 450 kts | 257° |
| 2026-05-07 16:19 | 22.91110 | 48.06818 | 35875 ft | 452 kts | 257° |
| 2026-05-07 16:19 | 22.90013 | 48.00135 | 35874 ft | 452 kts | 257° |
| 2026-05-07 16:20 | 22.88902 | 47.93391 | 35889 ft | 452 kts | 257° |
| 2026-05-07 16:20 | 22.87800 | 47.86718 | 35900 ft | 451 kts | 257° |
| 2026-05-07 16:21 | 22.86697 | 47.80060 | 35914 ft | 451 kts | 257° |
| 2026-05-07 16:21 | 22.85585 | 47.73362 | 35920 ft | 449 kts | 257° |
| 2026-05-07 16:22 | 22.84469 | 47.66656 | 35921 ft | 450 kts | 257° |
| 2026-05-07 16:22 | 22.83351 | 47.59960 | 35932 ft | 449 kts | 257° |
| 2026-05-07 16:23 | 22.82246 | 47.53353 | 35940 ft | 447 kts | 257° |
| 2026-05-07 16:23 | 22.81123 | 47.46664 | 35941 ft | 450 kts | 257° |
| 2026-05-07 16:24 | 22.80008 | 47.40035 | 35944 ft | 447 kts | 257° |
| 2026-05-07 16:24 | 22.78889 | 47.33406 | 35957 ft | 448 kts | 256° |
| 2026-05-07 16:25 | 22.77770 | 47.26787 | 35962 ft | 446 kts | 256° |
| 2026-05-07 16:25 | 22.76651 | 47.20132 | 35962 ft | 447 kts | 258° |
| 2026-05-07 16:26 | 22.76530 | 47.13421 | 35983 ft | 450 kts | 270° |
| 2026-05-07 16:26 | 22.77081 | 47.06612 | 35983 ft | 454 kts | 270° |
| 2026-05-07 16:27 | 22.77627 | 46.99839 | 35989 ft | 451 kts | 270° |
| 2026-05-07 16:27 | 22.78165 | 46.93048 | 35992 ft | 453 kts | 270° |
| 2026-05-07 16:28 | 22.78698 | 46.86274 | 35987 ft | 451 kts | 270° |
| 2026-05-07 16:28 | 22.79226 | 46.79499 | 35996 ft | 452 kts | 270° |
| 2026-05-07 16:29 | 22.79749 | 46.72740 | 36003 ft | 451 kts | 270° |
| 2026-05-07 16:29 | 22.80271 | 46.65951 | 36019 ft | 452 kts | 270° |
| 2026-05-07 16:30 | 22.80791 | 46.59160 | 36032 ft | 450 kts | 270° |
| 2026-05-07 16:30 | 22.81306 | 46.52390 | 36040 ft | 450 kts | 270° |
| 2026-05-07 16:31 | 22.81818 | 46.45618 | 36055 ft | 450 kts | 270° |
| 2026-05-07 16:31 | 22.82326 | 46.38863 | 36061 ft | 450 kts | 270° |
| 2026-05-07 16:32 | 22.82830 | 46.32088 | 36079 ft | 448 kts | 270° |
| 2026-05-07 16:32 | 22.83328 | 46.25336 | 36083 ft | 449 kts | 270° |
| 2026-05-07 16:33 | 22.83824 | 46.18583 | 36070 ft | 449 kts | 270° |
| 2026-05-07 16:33 | 22.84320 | 46.11805 | 36047 ft | 447 kts | 269° |
| 2026-05-07 16:34 | 22.84806 | 46.05095 | 36028 ft | 450 kts | 270° |
| 2026-05-07 16:34 | 22.85296 | 45.98319 | 36003 ft | 447 kts | 269° |
| 2026-05-07 16:35 | 22.85778 | 45.91592 | 36001 ft | 447 kts | 269° |
| 2026-05-07 16:35 | 22.86254 | 45.84931 | 35999 ft | 445 kts | 270° |
| 2026-05-07 16:36 | 22.86730 | 45.78207 | 36003 ft | 447 kts | 270° |
| 2026-05-07 16:36 | 22.87203 | 45.71504 | 36008 ft | 445 kts | 269° |
| 2026-05-07 16:37 | 22.87673 | 45.64790 | 36016 ft | 447 kts | 269° |
| 2026-05-07 16:37 | 22.88142 | 45.58065 | 36026 ft | 445 kts | 269° |
| 2026-05-07 16:38 | 22.88604 | 45.51385 | 36032 ft | 446 kts | 269° |
| 2026-05-07 16:38 | 22.89066 | 45.44667 | 36030 ft | 445 kts | 269° |
| 2026-05-07 16:39 | 22.89522 | 45.38014 | 36024 ft | 444 kts | 269° |
| 2026-05-07 16:39 | 22.89978 | 45.31290 | 36034 ft | 444 kts | 269° |
| 2026-05-07 16:40 | 22.90426 | 45.24670 | 36032 ft | 442 kts | 269° |
| 2026-05-07 16:40 | 22.90874 | 45.17984 | 36033 ft | 442 kts | 269° |
| 2026-05-07 16:41 | 22.91316 | 45.11353 | 36036 ft | 442 kts | 269° |
| 2026-05-07 16:41 | 22.91757 | 45.04696 | 36037 ft | 440 kts | 269° |
| 2026-05-07 16:42 | 22.92194 | 44.98041 | 36038 ft | 444 kts | 269° |
| 2026-05-07 16:42 | 22.92632 | 44.91340 | 36040 ft | 441 kts | 269° |
| 2026-05-07 16:43 | 22.93063 | 44.84704 | 36045 ft | 441 kts | 269° |
| 2026-05-07 16:43 | 22.93489 | 44.78094 | 36042 ft | 441 kts | 269° |
| 2026-05-07 16:44 | 22.93913 | 44.71479 | 36053 ft | 438 kts | 269° |
| 2026-05-07 16:44 | 22.94103 | 44.64830 | 36052 ft | 437 kts | 263° |
| 2026-05-07 16:45 | 22.93822 | 44.58274 | 36053 ft | 435 kts | 263° |
| 2026-05-07 16:45 | 22.93537 | 44.51765 | 36055 ft | 434 kts | 263° |
| 2026-05-07 16:46 | 22.93248 | 44.45221 | 36055 ft | 433 kts | 263° |
| 2026-05-07 16:46 | 22.92956 | 44.38644 | 36068 ft | 433 kts | 263° |
| 2026-05-07 16:47 | 22.92666 | 44.32145 | 36088 ft | 431 kts | 262° |
| 2026-05-07 16:47 | 22.92372 | 44.25647 | 36088 ft | 432 kts | 262° |
| 2026-05-07 16:48 | 22.92076 | 44.19150 | 36102 ft | 432 kts | 262° |
| 2026-05-07 16:48 | 22.91775 | 44.12599 | 36103 ft | 433 kts | 262° |
| 2026-05-07 16:49 | 22.91474 | 44.06112 | 36107 ft | 433 kts | 262° |
| 2026-05-07 16:49 | 22.91169 | 43.99574 | 36106 ft | 432 kts | 262° |
| 2026-05-07 16:50 | 22.90861 | 43.93055 | 36110 ft | 432 kts | 262° |
| 2026-05-07 16:50 | 22.90554 | 43.86583 | 36102 ft | 431 kts | 262° |
| 2026-05-07 16:51 | 22.90242 | 43.80099 | 36104 ft | 430 kts | 262° |
| 2026-05-07 16:51 | 22.89927 | 43.73603 | 36097 ft | 431 kts | 263° |
| 2026-05-07 16:52 | 22.89613 | 43.67156 | 36102 ft | 430 kts | 263° |
| 2026-05-07 16:52 | 22.89295 | 43.60691 | 36096 ft | 430 kts | 263° |
| 2026-05-07 16:53 | 22.88972 | 43.54197 | 36097 ft | 431 kts | 263° |
| 2026-05-07 16:53 | 22.88650 | 43.47744 | 36105 ft | 428 kts | 262° |
| 2026-05-07 16:54 | 22.88324 | 43.41287 | 36090 ft | 430 kts | 263° |
| 2026-05-07 16:54 | 22.87995 | 43.34804 | 36091 ft | 427 kts | 262° |
| 2026-05-07 16:55 | 22.87665 | 43.28372 | 36124 ft | 430 kts | 262° |
| 2026-05-07 16:55 | 22.87332 | 43.21907 | 36116 ft | 426 kts | 262° |
| 2026-05-07 16:56 | 22.86995 | 43.15454 | 36113 ft | 430 kts | 262° |
| 2026-05-07 16:56 | 22.86491 | 43.05851 | 36112 ft | 426 kts | 262° |
| 2026-05-07 16:57 | 22.86148 | 42.99382 | 36102 ft | 427 kts | 262° |
| 2026-05-07 16:57 | 22.85806 | 42.92995 | 36095 ft | 427 kts | 262° |
| 2026-05-07 16:58 | 22.85458 | 42.86542 | 36097 ft | 428 kts | 262° |
| 2026-05-07 16:58 | 22.85112 | 42.80163 | 36096 ft | 428 kts | 262° |
| 2026-05-07 16:59 | 22.84760 | 42.73728 | 36091 ft | 430 kts | 262° |
| 2026-05-07 16:59 | 22.84403 | 42.67255 | 36096 ft | 430 kts | 262° |
| 2026-05-07 17:00 | 22.84063 | 42.61115 | 36088 ft | 429 kts | 262° |
| 2026-05-07 17:00 | 22.83722 | 42.55020 | 36083 ft | 431 kts | 262° |
| 2026-05-07 17:01 | 22.83319 | 42.47861 | 36085 ft | 432 kts | 262° |
| 2026-05-07 17:01 | 22.82954 | 42.41408 | 36089 ft | 428 kts | 262° |
| 2026-05-07 17:02 | 22.82587 | 42.34988 | 36087 ft | 430 kts | 261° |
| 2026-05-07 17:02 | 22.82220 | 42.28598 | 36100 ft | 430 kts | 261° |
| 2026-05-07 17:03 | 22.81846 | 42.22159 | 36099 ft | 432 kts | 261° |
| 2026-05-07 17:03 | 22.81469 | 42.15683 | 36090 ft | 429 kts | 261° |
| 2026-05-07 17:04 | 22.81084 | 42.09145 | 36100 ft | 433 kts | 261° |
| 2026-05-07 17:04 | 22.80700 | 42.02639 | 36093 ft | 430 kts | 261° |
| 2026-05-07 17:05 | 22.80314 | 41.96151 | 36090 ft | 431 kts | 261° |
| 2026-05-07 17:05 | 22.79925 | 41.89667 | 36096 ft | 433 kts | 261° |
| 2026-05-07 17:06 | 22.79353 | 41.83212 | 36100 ft | 431 kts | 258° |
| 2026-05-07 17:06 | 22.78722 | 41.76784 | 36101 ft | 429 kts | 259° |
| 2026-05-07 17:07 | 22.78094 | 41.70312 | 36096 ft | 428 kts | 258° |
| 2026-05-07 17:07 | 22.77469 | 41.63878 | 36095 ft | 432 kts | 259° |
| 2026-05-07 17:08 | 22.76846 | 41.57441 | 36094 ft | 429 kts | 258° |
| 2026-05-07 17:08 | 22.76217 | 41.50979 | 36094 ft | 431 kts | 259° |
| 2026-05-07 17:09 | 22.75594 | 41.44579 | 36092 ft | 429 kts | 258° |
| 2026-05-07 17:09 | 22.74962 | 41.38129 | 36091 ft | 429 kts | 258° |
| 2026-05-07 17:10 | 22.74222 | 41.31741 | 36100 ft | 425 kts | 252° |
| 2026-05-07 17:10 | 22.72314 | 41.25801 | 36100 ft | 418 kts | 244° |
| 2026-05-07 17:11 | 22.70174 | 41.19945 | 36099 ft | 419 kts | 244° |
| 2026-05-07 17:11 | 22.68010 | 41.14034 | 36092 ft | 422 kts | 244° |
| 2026-05-07 17:12 | 22.65856 | 41.08159 | 36091 ft | 417 kts | 244° |
| 2026-05-07 17:12 | 22.63692 | 41.02271 | 36098 ft | 421 kts | 245° |
| 2026-05-07 17:13 | 22.61525 | 40.96379 | 36098 ft | 418 kts | 244° |
| 2026-05-07 17:13 | 22.59371 | 40.90532 | 36097 ft | 419 kts | 245° |
| 2026-05-07 17:14 | 22.57215 | 40.84688 | 36093 ft | 418 kts | 244° |
| 2026-05-07 17:14 | 22.55071 | 40.78881 | 36094 ft | 419 kts | 244° |
| 2026-05-07 17:15 | 22.52928 | 40.73085 | 36086 ft | 417 kts | 245° |
| 2026-05-07 17:15 | 22.50770 | 40.67257 | 36089 ft | 419 kts | 245° |
| 2026-05-07 17:16 | 22.48607 | 40.61423 | 36086 ft | 416 kts | 244° |
| 2026-05-07 17:16 | 22.46474 | 40.55676 | 36085 ft | 419 kts | 244° |
| 2026-05-07 17:17 | 22.44362 | 40.49992 | 36088 ft | 417 kts | 245° |
| 2026-05-07 17:17 | 22.42194 | 40.44166 | 36094 ft | 416 kts | 244° |
| 2026-05-07 17:18 | 22.40045 | 40.38397 | 36105 ft | 415 kts | 244° |
| 2026-05-07 17:18 | 22.37891 | 40.32626 | 36128 ft | 415 kts | 244° |
| 2026-05-07 17:19 | 22.35729 | 40.26838 | 36142 ft | 415 kts | 244° |
| 2026-05-07 17:19 | 22.33567 | 40.21057 | 36155 ft | 414 kts | 244° |
| 2026-05-07 17:20 | 22.31405 | 40.15283 | 36143 ft | 415 kts | 244° |
| 2026-05-07 17:20 | 22.29243 | 40.09516 | 36129 ft | 413 kts | 244° |
| 2026-05-07 17:21 | 22.27103 | 40.03814 | 35565 ft | 403 kts | 243° |
| 2026-05-07 17:21 | 22.25840 | 40.01121 | 34458 ft | 407 kts | 236° |
| 2026-05-07 17:21 | 22.24286 | 39.98564 | 32896 ft | 422 kts | 232° |
| 2026-05-07 17:22 | 22.22326 | 39.96173 | 31317 ft | 439 kts | 224° |
| 2026-05-07 17:22 | 22.19903 | 39.94139 | 30052 ft | 448 kts | 214° |
| 2026-05-07 17:22 | 22.17116 | 39.92596 | 29446 ft | 446 kts | 205° |
| 2026-05-07 17:22 | 22.14186 | 39.91620 | 29073 ft | 440 kts | 195° |
| 2026-05-07 17:23 | 22.11123 | 39.91185 | 28482 ft | 440 kts | 186° |
| 2026-05-07 17:23 | 22.08090 | 39.91048 | 27686 ft | 438 kts | 189° |
| 2026-05-07 17:23 | 22.05100 | 39.90497 | 26836 ft | 436 kts | 197° |
| 2026-05-07 17:23 | 22.02254 | 39.89508 | 25810 ft | 427 kts | 205° |
| 2026-05-07 17:24 | 21.99582 | 39.88107 | 24604 ft | 422 kts | 213° |
| 2026-05-07 17:24 | 21.97186 | 39.86357 | 23405 ft | 418 kts | 220° |
| 2026-05-07 17:24 | 21.95049 | 39.84269 | 22228 ft | 414 kts | 227° |
| 2026-05-07 17:24 | 21.93240 | 39.81924 | 21202 ft | 408 kts | 235° |
| 2026-05-07 17:25 | 21.91756 | 39.79343 | 20216 ft | 402 kts | 242° |
| 2026-05-07 17:25 | 21.90634 | 39.76631 | 19236 ft | 397 kts | 249° |
| 2026-05-07 17:25 | 21.89864 | 39.73808 | 18217 ft | 393 kts | 256° |
| 2026-05-07 17:25 | 21.89453 | 39.70927 | 17247 ft | 390 kts | 264° |
| 2026-05-07 17:26 | 21.89397 | 39.68038 | 16296 ft | 387 kts | 271° |
| 2026-05-07 17:26 | 21.89711 | 39.65190 | 15807 ft | 382 kts | 278° |
| 2026-05-07 17:26 | 21.90377 | 39.62468 | 15641 ft | 369 kts | 285° |
| 2026-05-07 17:26 | 21.91164 | 39.59889 | 15535 ft | 356 kts | 285° |
| 2026-05-07 17:27 | 21.91929 | 39.57406 | 15387 ft | 344 kts | 285° |
| 2026-05-07 17:27 | 21.92671 | 39.54997 | 15225 ft | 333 kts | 285° |
| 2026-05-07 17:27 | 21.93389 | 39.52661 | 15060 ft | 322 kts | 285° |
| 2026-05-07 17:27 | 21.93784 | 39.50366 | 14908 ft | 305 kts | 265° |
| 2026-05-07 17:28 | 21.93394 | 39.48177 | 14892 ft | 289 kts | 250° |
| 2026-05-07 17:28 | 21.92697 | 39.46204 | 14880 ft | 273 kts | 245° |
| 2026-05-07 17:28 | 21.91942 | 39.44376 | 14865 ft | 260 kts | 244° |
| 2026-05-07 17:28 | 21.91182 | 39.42636 | 14653 ft | 254 kts | 243° |
| 2026-05-07 17:29 | 21.90424 | 39.40929 | 14312 ft | 253 kts | 243° |
| 2026-05-07 17:29 | 21.89671 | 39.39240 | 14083 ft | 248 kts | 243° |
| 2026-05-07 17:29 | 21.88926 | 39.37568 | 13765 ft | 247 kts | 243° |
| 2026-05-07 17:29 | 21.88187 | 39.35912 | 13396 ft | 248 kts | 243° |
| 2026-05-07 17:30 | 21.87443 | 39.34244 | 13061 ft | 247 kts | 242° |
| 2026-05-07 17:30 | 21.86696 | 39.32572 | 12764 ft | 246 kts | 242° |
| 2026-05-07 17:30 | 21.85954 | 39.30909 | 12471 ft | 244 kts | 242° |
| 2026-05-07 17:30 | 21.85227 | 39.29282 | 12113 ft | 245 kts | 242° |
| 2026-05-07 17:31 | 21.84490 | 39.27632 | 11782 ft | 245 kts | 242° |
| 2026-05-07 17:31 | 21.83748 | 39.25972 | 11450 ft | 245 kts | 243° |
| 2026-05-07 17:31 | 21.82979 | 39.24349 | 11143 ft | 242 kts | 233° |
| 2026-05-07 17:31 | 21.81729 | 39.23166 | 10734 ft | 242 kts | 204° |
| 2026-05-07 17:32 | 21.80094 | 39.22816 | 10348 ft | 244 kts | 176° |
| 2026-05-07 17:32 | 21.78440 | 39.23153 | 10076 ft | 242 kts | 165° |
| 2026-05-07 17:32 | 21.76823 | 39.23725 | 9730 ft | 244 kts | 161° |
| 2026-05-07 17:32 | 21.75757 | 39.24140 | 9500 ft | 244 kts | 161° |
| 2026-05-07 17:33 | 21.73635 | 39.24976 | 8916 ft | 245 kts | 161° |
| 2026-05-07 17:33 | 21.72043 | 39.25602 | 8568 ft | 239 kts | 161° |
| 2026-05-07 17:33 | 21.70479 | 39.26221 | 8158 ft | 237 kts | 160° |
| 2026-05-07 17:33 | 21.68928 | 39.26834 | 7741 ft | 236 kts | 160° |
| 2026-05-07 17:34 | 21.67391 | 39.27443 | 7363 ft | 234 kts | 160° |
| 2026-05-07 17:34 | 21.65849 | 39.28052 | 6924 ft | 238 kts | 160° |
| 2026-05-07 17:34 | 21.64267 | 39.28677 | 6413 ft | 242 kts | 160° |
| 2026-05-07 17:34 | 21.62697 | 39.29297 | 5936 ft | 242 kts | 161° |
| 2026-05-07 17:35 | 21.61107 | 39.29920 | 5466 ft | 242 kts | 160° |
| 2026-05-07 17:35 | 21.59523 | 39.30540 | 4996 ft | 242 kts | 160° |
| 2026-05-07 17:35 | 21.57922 | 39.31167 | 4528 ft | 243 kts | 160° |
| 2026-05-07 17:35 | 21.56307 | 39.31730 | 4048 ft | 245 kts | 171° |
| 2026-05-07 17:36 | 21.54612 | 39.31590 | 3544 ft | 245 kts | 200° |
| 2026-05-07 17:36 | 21.53205 | 39.30606 | 3125 ft | 240 kts | 230° |
| 2026-05-07 17:36 | 21.52382 | 39.29113 | 3018 ft | 230 kts | 248° |
| 2026-05-07 17:36 | 21.51770 | 39.27506 | 2925 ft | 235 kts | 253° |
| 2026-05-07 17:37 | 21.51624 | 39.25798 | 2652 ft | 226 kts | 283° |
| 2026-05-07 17:37 | 21.52241 | 39.24285 | 2423 ft | 218 kts | 307° |
| 2026-05-07 17:37 | 21.53321 | 39.23248 | 2220 ft | 204 kts | 334° |
| 2026-05-07 17:37 | 21.54617 | 39.22709 | 2036 ft | 192 kts | 342° |
| 2026-05-07 17:38 | 21.55844 | 39.22265 | 2001 ft | 174 kts | 342° |
| 2026-05-07 17:38 | 21.56930 | 39.21847 | 1994 ft | 160 kts | 341° |
| 2026-05-07 17:38 | 21.57969 | 39.21441 | 1792 ft | 155 kts | 341° |
| 2026-05-07 17:38 | 21.58979 | 39.21046 | 1608 ft | 152 kts | 342° |
| 2026-05-07 17:39 | 21.59949 | 39.20666 | 1411 ft | 144 kts | 342° |
| 2026-05-07 17:39 | 21.60872 | 39.20305 | 1242 ft | 138 kts | 342° |
| 2026-05-07 17:39 | 21.61771 | 39.19953 | 1063 ft | 137 kts | 342° |
| 2026-05-07 17:39 | 21.62668 | 39.19602 | 889 ft | 136 kts | 341° |
| 2026-05-07 17:40 | 21.63566 | 39.19248 | 707 ft | 137 kts | 342° |
| 2026-05-07 17:40 | 21.64468 | 39.18903 | 525 ft | 137 kts | 341° |
| 2026-05-07 17:40 | 21.65358 | 39.18549 | 334 ft | 136 kts | 341° |
| 2026-05-07 17:40 | 21.66266 | 39.18194 | 166 ft | 137 kts | 341° |
| 2026-05-07 17:41 | 21.67159 | 39.17842 | 64 ft | 129 kts | 340° |
| 2026-05-07 17:41 | 21.67856 | 39.17574 | 62 ft | 79 kts | 340° |
| 2026-05-07 17:41 | 21.68151 | 39.17456 | 62 ft | 22 kts | 334° |
| 2026-05-07 17:41 | 21.68277 | 39.17370 | 62 ft | 20 kts | 319° |
| 2026-05-07 17:42 | 21.68368 | 39.17267 | 62 ft | 18 kts | 310° |
| 2026-05-07 17:42 | 21.68416 | 39.17202 | 62 ft | 7 kts | 308° |
| 2026-05-07 17:42 | 21.68449 | 39.17158 | 62 ft | 7 kts | 309° |
| 2026-05-07 17:42 | 21.68479 | 39.17114 | 62 ft | 7 kts | 303° |
| 2026-05-07 17:43 | 21.68499 | 39.17063 | 62 ft | 8 kts | 283° |
| 2026-05-07 17:43 | 21.68478 | 39.17009 | 62 ft | 9 kts | 196° |
| 2026-05-07 17:43 | 21.68399 | 39.17025 | 62 ft | 13 kts | 161° |
| 2026-05-07 17:43 | 21.68313 | 39.17057 | 62 ft | 14 kts | 159° |
| 2026-05-07 17:44 | 21.68231 | 39.17091 | 62 ft | 13 kts | 159° |
| 2026-05-07 17:44 | 21.68129 | 39.17131 | 62 ft | 16 kts | 161° |
| 2026-05-07 17:44 | 21.68028 | 39.17170 | 62 ft | 9 kts | 160° |
| 2026-05-07 17:44 | 21.67969 | 39.17150 | 62 ft | 10 kts | 234° |
| 2026-05-07 17:45 | 21.67939 | 39.17081 | 62 ft | 8 kts | 249° |
| 2026-05-07 17:45 | 21.67917 | 39.17017 | 62 ft | 10 kts | 249° |
| 2026-05-07 17:45 | 21.67888 | 39.16934 | 62 ft | 13 kts | 249° |
| 2026-05-07 17:45 | 21.67856 | 39.16843 | 62 ft | 12 kts | 250° |
| 2026-05-07 17:46 | 21.67803 | 39.16791 | 62 ft | 12 kts | 176° |
| 2026-05-07 17:46 | 21.67715 | 39.16822 | 62 ft | 13 kts | 160° |
| 2026-05-07 17:46 | 21.67627 | 39.16856 | 62 ft | 13 kts | 159° |
| 2026-05-07 17:46 | 21.67550 | 39.16887 | 62 ft | 0 kts | 160° |
| 2026-05-07 17:47 | 21.67547 | 39.16888 | 62 ft | 0 kts | 160° |
| 2026-05-07 17:47 | 21.67540 | 39.16891 | 62 ft | 1 kts | 160° |
| 2026-05-07 17:47 | 21.67527 | 39.16895 | 62 ft | 3 kts | 160° |
| 2026-05-07 17:47 | 21.67481 | 39.16914 | 62 ft | 10 kts | 160° |
| 2026-05-07 17:48 | 21.67399 | 39.16947 | 62 ft | 12 kts | 153° |
| 2026-05-07 17:48 | 21.67330 | 39.17007 | 62 ft | 12 kts | 123° |
| 2026-05-07 17:48 | 21.67297 | 39.17075 | 62 ft | 7 kts | 122° |
| 2026-05-07 17:48 | 21.67271 | 39.17113 | 62 ft | 5 kts | 128° |
| 2026-05-07 17:49 | 21.67260 | 39.17127 | 62 ft | 0 kts | 129° |